Soaring Guidance
Issued by NWS Reno, NV

Home | Current Version | Previous Version | Text Only | Print | Product List | Glossary On
Versions: 1 2 3 4 5 6 7 8 9 10 11 12 13 14 15 16
000
UXUS97 KREV 311359
SRGREV

SOARING FORECAST
NATIONAL WEATHER SERVICE - RENO NV
700 AM PDT FRI JUL 31 2015

THIS SOARING FORECAST IS FOR THE EASTERN SIERRA AND WESTERN NEVADA
WITH SPECIFIC INDICES FOR THE GREATER RENO AREA.

THIS FORECAST IS PREPARED DAILY BY 700 AM AND IS NOT UPDATED.

FOR CURRENT FLIGHT CONDITIONS...FORECASTS...AND ADVISORIES...ACCESS
YOUR LOCAL BRIEFING OUTLET OR FLIGHT SERVICE STATION.

*******************************************************************
FORECASTED LOCAL INDICES FOR RENO:        TODAY     YESTERDAY
FORECASTED MAX TEMP AT RENO (DEG F).....     96          99
FORECASTED TRIGGER TEMPERATURE (DEG F)..     87          84
   EXCEEDED YESTERDAY BY 1055 AM PDT
FORECASTED MAXIMUM ALTITUDE (FT MSL)....  17800       17800
FORECASTED SOARING INDEX (FPM)..........   1284        1194
FORECASTED K-INDEX.........VALID 18Z....      9           8
FORECASTED K-INDEX.........VALID 00Z....     20          11
FORECASTED LIFTED INDEX....VALID 18Z....      3           5
FORECASTED LIFTED INDEX....VALID 00Z....      2           3

AFTERNOON WINDS ALOFT FORECAST
MSL (FT) WIND/TEMP
9000  9900/+20
10000 9902/+17
12000 0605/+11
14000 0806/+04
16000 1108/-02
18000 1412/-08
24000 1517/-20
30000 2121/-35
34000 2036/-45
39000 2049/-55

SLIDE MOUNTAIN DATA:
     DATE       TIME     TEMP  DEWPT   RH         WIND (MPH)
                        (F)   (F)           | DIR  SPEED GUST
2015-07-31    05:30      60    31     20    | 048   11   16
2015-07-31    05:20      60    32     21    | 048   11   17
2015-07-31    05:00      60    32     22    | 049   11   16
2015-07-31    04:50      60    32     22    | 051   13   17

RENO TAF FORECAST:
KRNO 311120Z 3112/0112 VRB04KT P6SM SCT120 BKN200
     FM312100 07008KT P6SM SCT100 BKN200
     FM010200 30008KT P6SM FEW100 BKN200

CARSON CITY TAF FORECAST:
KCXP 311120Z 3112/0112 VRB03KT P6SM SCT120 BKN200
     FM312000 07010KT P6SM SCT100 BKN200
     FM010400 VRB04KT P6SM FEW100 BKN200

OUTLOOK FOR THE RENO-CARSON CITY-MINDEN AREA:
.SATURDAY...PARTLY CLOUDY IN THE MORNING THEN BECOMING MOSTLY
CLOUDY. CHANCE OF SHOWERS AND THUNDERSTORMS. HIGHS 91 TO 96. WEST
WINDS AROUND 10 MPH IN THE MORNING BECOMING LIGHT.

SUNRISE AND SUNSET
JULY 31 2015..........SUNRISE   558 AM PDT   SUNSET   813 PM PDT
AUGUST  1 2015........SUNRISE   559 AM PDT   SUNSET   812 PM PDT


USA.gov is the U.S. government's official web portal to all federal, state and local government web resources and services.